createdAt,value
2022-12-28T00:01:48.958Z,101665.97
2022-12-28T00:04:15.947Z,101677.88
2022-12-28T00:06:43.039Z,101666.50
2022-12-28T00:09:13.251Z,101669.72
2022-12-28T00:11:40.406Z,101679.81
2022-12-28T00:14:07.895Z,101665.13
2022-12-28T00:16:38.275Z,101671.53
2022-12-28T00:19:16.002Z,101670.31
2022-12-28T00:21:45.167Z,101669.31
2022-12-28T00:24:23.272Z,101656.66
2022-12-28T00:26:50.864Z,101661.78
2022-12-28T00:29:18.738Z,101656.69
2022-12-28T00:31:46.109Z,101654.88
2022-12-28T00:34:13.738Z,101639.97
2022-12-28T00:37:09.573Z,101632.81
2022-12-28T00:39:29.399Z,101631.81
2022-12-28T00:41:56.337Z,101617.69
2022-12-28T00:44:23.202Z,101635.09
2022-12-28T00:46:50.460Z,101644.41
2022-12-28T00:49:18.394Z,101645.41
2022-12-28T00:51:45.402Z,101651.13
2022-12-28T00:54:12.473Z,101643.38
2022-12-28T00:56:44.776Z,101627.59
2022-12-28T00:59:11.855Z,101621.66
2022-12-28T01:01:40.273Z,101637.88
2022-12-28T01:04:07.997Z,101629.06
2022-12-28T01:06:34.984Z,101625.19
2022-12-28T01:09:02.091Z,101625.19
2022-12-28T01:11:30.762Z,101629.69
2022-12-28T01:14:00.991Z,101620.06
2022-12-28T01:16:35.820Z,101630.16
2022-12-28T01:19:06.140Z,101625.28
2022-12-28T01:21:35.591Z,101611.53
2022-12-28T01:24:05.467Z,101615.47
2022-12-28T01:26:33.108Z,101628.75
2022-12-28T01:29:00.172Z,101605.06
2022-12-28T01:31:27.300Z,101608.09
2022-12-28T01:33:55.388Z,101607.47
2022-12-28T01:36:28.399Z,101597.22
2022-12-28T01:38:59.018Z,101589.47
2022-12-28T01:41:29.055Z,101590.09
2022-12-28T01:43:56.177Z,101578.81
2022-12-28T01:46:39.741Z,101585.56
2022-12-28T01:49:26.093Z,101580.88
2022-12-28T01:52:09.574Z,101576.94
2022-12-28T01:55:01.990Z,101570.41
2022-12-28T01:57:32.947Z,101557.03
2022-12-28T02:00:11.022Z,101558.25
2022-12-28T02:02:55.931Z,101545.13
2022-12-28T02:05:28.922Z,101530.19
2022-12-28T02:08:22.138Z,101527.28
2022-12-28T02:10:51.732Z,101531.75
2022-12-28T02:13:19.952Z,101538.06
2022-12-28T02:15:48.717Z,101529.03
2022-12-28T02:18:18.718Z,101520.00
2022-12-28T02:21:04.856Z,101512.59
2022-12-28T02:24:02.192Z,101507.28
2022-12-28T02:26:53.846Z,101492.28
2022-12-28T02:29:45.028Z,101496.16
2022-12-28T02:32:30.819Z,101488.09
2022-12-28T02:35:27.436Z,101484.81
2022-12-28T02:38:11.360Z,101469.03
2022-12-28T02:40:55.144Z,101472.28
2022-12-28T02:43:23.412Z,101468.63
2022-12-28T02:46:08.943Z,101448.16
2022-12-28T02:49:03.285Z,101459.00
2022-12-28T02:52:20.868Z,101439.13
2022-12-28T02:55:56.084Z,101435.22
2022-12-28T02:58:50.764Z,101431.53
2022-12-28T03:02:01.321Z,101422.75
2022-12-28T03:04:40.649Z,101403.72
2022-12-28T03:07:51.028Z,101395.06
2022-12-28T03:10:29.204Z,101402.47
2022-12-28T03:13:33.034Z,101401.81
2022-12-28T03:16:08.332Z,101386.91
2022-12-28T03:18:56.632Z,101384.88
2022-12-28T03:21:46.223Z,101378.53
2022-12-28T03:24:34.223Z,101375.44
2022-12-28T03:27:25.340Z,101374.63
2022-12-28T03:30:33.313Z,101367.28
2022-12-28T03:33:01.020Z,101366.22
2022-12-28T03:36:15.713Z,101356.84
2022-12-28T03:39:41.309Z,101351.97
2022-12-28T03:42:31.261Z,101348.88
2022-12-28T03:45:12.543Z,101343.56
2022-12-28T03:47:42.216Z,101338.63
2022-12-28T03:50:11.376Z,101342.94
2022-12-28T03:52:38.880Z,101333.75
2022-12-28T03:55:06.902Z,101317.81
2022-12-28T03:57:33.867Z,101325.78
2022-12-28T04:00:03.890Z,101306.56
2022-12-28T04:02:43.272Z,101300.41
2022-12-28T04:05:10.847Z,101310.25
2022-12-28T04:07:39.941Z,101304.72
2022-12-28T04:10:07.814Z,101298.38
2022-12-28T04:12:35.533Z,101295.91
2022-12-28T04:15:21.910Z,101292.44
2022-12-28T04:17:49.106Z,101287.13
2022-12-28T04:20:16.055Z,101282.63
2022-12-28T04:22:43.328Z,101271.00
2022-12-28T04:25:10.392Z,101268.91
2022-12-28T04:27:37.414Z,101266.25
2022-12-28T04:30:12.236Z,101264.22
2022-12-28T04:32:39.132Z,101258.91
2022-12-28T04:35:06.576Z,101268.72
2022-12-28T04:37:43.021Z,101259.94
2022-12-28T04:40:10.606Z,101247.63
2022-12-28T04:42:37.700Z,101244.78
2022-12-28T04:45:05.302Z,101234.19
2022-12-28T04:47:32.652Z,101239.06
2022-12-28T04:49:59.690Z,101244.81
2022-12-28T04:52:26.546Z,101242.38
2022-12-28T04:54:53.793Z,101240.75
2022-12-28T04:57:20.677Z,101235.81
2022-12-28T04:59:47.695Z,101233.41
2022-12-28T05:02:14.630Z,101234.84
2022-12-28T05:04:41.787Z,101230.13
2022-12-28T05:07:08.642Z,101225.22
2022-12-28T05:09:35.861Z,101223.59
2022-12-28T05:12:02.921Z,101225.03
2022-12-28T05:14:34.992Z,101234.22
2022-12-28T05:17:04.203Z,101230.97
2022-12-28T05:19:31.166Z,101240.16
2022-12-28T05:21:58.246Z,101226.03
2022-12-28T05:24:25.050Z,101209.28
2022-12-28T05:26:52.368Z,101223.22
2022-12-28T05:29:19.206Z,101214.63
2022-12-28T05:31:46.273Z,101209.09
2022-12-28T05:34:13.136Z,101207.88
2022-12-28T05:36:40.971Z,101197.47
2022-12-28T05:39:08.273Z,101200.34
2022-12-28T05:41:35.259Z,101204.03
2022-12-28T05:44:02.169Z,101198.53
2022-12-28T05:46:34.923Z,101202.63
2022-12-28T05:49:02.555Z,101189.09
2022-12-28T05:51:32.115Z,101188.50
2022-12-28T05:54:01.556Z,101176.88
2022-12-28T05:56:30.120Z,101172.00
2022-12-28T05:59:00.356Z,101172.59
2022-12-28T06:01:31.014Z,101166.47
2022-12-28T06:04:02.889Z,101162.16
2022-12-28T06:06:31.939Z,101147.66
2022-12-28T06:08:59.342Z,101154.41
2022-12-28T06:11:28.703Z,101154.41
2022-12-28T06:13:57.480Z,101160.97
2022-12-28T06:16:28.789Z,101162.19
2022-12-28T06:18:56.526Z,101149.28
2022-12-28T06:21:30.000Z,101153.59
2022-12-28T06:23:58.843Z,101142.34
2022-12-28T06:26:28.819Z,101139.91
2022-12-28T06:28:56.261Z,101133.97
2022-12-28T06:31:29.787Z,101134.16
2022-12-28T06:33:59.780Z,101130.91
2022-12-28T06:36:42.594Z,101120.47
2022-12-28T06:39:13.569Z,101128.47
2022-12-28T06:41:41.256Z,101114.53
2022-12-28T06:44:13.589Z,101116.59
2022-12-28T06:46:40.748Z,101121.91
2022-12-28T06:49:08.153Z,101118.03
2022-12-28T06:51:42.379Z,101116.41
2022-12-28T06:54:10.555Z,101098.38
2022-12-28T06:56:38.583Z,101119.66
2022-12-28T06:59:06.037Z,101112.06
2022-12-28T07:01:37.079Z,101099.75
2022-12-28T07:04:06.638Z,101101.38
2022-12-28T07:06:43.175Z,101091.94
2022-12-28T07:09:13.334Z,101082.72
2022-12-28T07:11:41.388Z,101087.00
2022-12-28T07:14:08.418Z,101082.28
2022-12-28T07:19:01.805Z,101064.72
2022-12-28T07:21:37.820Z,101073.50
2022-12-28T07:24:06.951Z,101063.91
2022-12-28T07:26:36.247Z,101059.41
2022-12-28T07:29:06.546Z,101057.38
2022-12-28T07:31:41.932Z,101058.81
2022-12-28T07:34:12.689Z,101053.06
2022-12-28T07:36:39.954Z,101059.63
2022-12-28T07:39:06.856Z,101051.25
2022-12-28T07:41:36.426Z,101042.47
2022-12-28T07:44:06.414Z,101043.28
2022-12-28T07:46:35.728Z,101037.78
2022-12-28T07:49:03.285Z,101042.28
2022-12-28T07:51:34.976Z,101035.53
2022-12-28T07:54:02.805Z,101033.09
2022-12-28T07:56:30.988Z,101026.97
2022-12-28T07:59:01.978Z,101028.59
2022-12-28T08:01:32.573Z,101035.13
2022-12-28T08:04:09.154Z,101027.38
2022-12-28T08:06:40.160Z,101032.28
2022-12-28T08:09:10.468Z,101027.81
2022-12-28T08:11:40.793Z,101015.75
2022-12-28T08:14:08.913Z,101013.91
2022-12-28T08:16:40.021Z,101020.03
2022-12-28T08:19:08.781Z,101024.53
2022-12-28T08:21:42.734Z,101014.53
2022-12-28T08:24:15.916Z,101016.38
2022-12-28T08:26:44.159Z,101001.63
2022-12-28T08:29:19.112Z,101009.00
2022-12-28T08:31:46.669Z,101001.63
2022-12-28T08:34:18.221Z,100993.03
2022-12-28T08:36:45.323Z,100981.34
2022-12-28T08:39:12.177Z,100977.06
2022-12-28T08:41:39.133Z,100986.25
2022-12-28T08:44:06.389Z,100982.16
2022-12-28T08:46:36.260Z,100984.63
2022-12-28T08:49:05.738Z,100965.59
2022-12-28T08:51:35.957Z,100976.00
2022-12-28T08:54:03.690Z,100974.56
2022-12-28T08:56:35.112Z,100973.31
2022-12-28T08:59:04.031Z,100961.84
2022-12-28T09:01:40.897Z,100974.09
2022-12-28T09:04:18.236Z,100966.13
2022-12-28T09:06:45.669Z,100973.25
2022-12-28T09:09:15.781Z,100954.41
2022-12-28T09:11:43.711Z,100954.78
2022-12-28T09:14:20.736Z,100946.97
2022-12-28T09:16:49.934Z,100959.47
2022-12-28T09:19:16.957Z,100950.41
2022-12-28T09:21:45.277Z,100947.31
2022-12-28T09:24:13.634Z,100946.03
2022-12-28T09:26:40.820Z,100947.84
2022-12-28T09:29:13.717Z,100945.41
2022-12-28T09:31:41.428Z,100967.53
2022-12-28T09:37:00.330Z,100929.81
2022-12-28T09:39:27.996Z,100941.88
2022-12-28T09:42:21.935Z,100932.81
2022-12-28T09:45:11.524Z,100911.09
2022-12-28T09:47:49.692Z,100912.31
2022-12-28T09:50:16.899Z,100911.66
2022-12-28T09:53:06.405Z,100899.16
2022-12-28T09:55:38.181Z,100900.13
2022-12-28T09:58:13.164Z,100904.00
2022-12-28T10:00:51.529Z,100894.31
2022-12-28T10:03:40.029Z,100902.91
2022-12-28T10:06:24.528Z,100909.19
2022-12-28T10:09:00.762Z,100889.50
2022-12-28T10:11:33.990Z,100877.16
2022-12-28T10:14:35.585Z,100888.56
2022-12-28T10:17:02.951Z,100888.13
2022-12-28T10:19:29.919Z,100873.97
2022-12-28T10:22:07.360Z,100887.41
2022-12-28T10:24:34.993Z,100874.44
2022-12-28T10:27:05.447Z,100872.59
2022-12-28T10:29:34.308Z,100871.03
2022-12-28T10:32:06.332Z,100852.97
2022-12-28T10:34:36.388Z,100865.81
2022-12-28T10:37:16.372Z,100852.03
2022-12-28T10:39:59.058Z,100862.41
2022-12-28T10:42:40.802Z,100848.25
2022-12-28T10:45:18.868Z,100856.03
2022-12-28T10:47:52.716Z,100842.59
2022-12-28T10:50:43.088Z,100834.69
2022-12-28T10:53:32.380Z,100836.09
2022-12-28T10:56:07.513Z,100836.41
2022-12-28T10:58:34.921Z,100836.63
2022-12-28T11:01:13.502Z,100845.50
2022-12-28T11:03:45.026Z,100829.72
2022-12-28T11:06:27.885Z,100824.81
2022-12-28T11:09:13.924Z,100821.25
2022-12-28T11:11:42.480Z,100824.31
2022-12-28T11:14:35.052Z,100821.19
2022-12-28T11:17:25.202Z,100820.16
2022-12-28T11:20:03.988Z,100811.72
2022-12-28T11:22:31.984Z,100813.56
2022-12-28T11:25:00.926Z,100813.03
2022-12-28T11:27:28.815Z,100805.50
2022-12-28T11:29:56.475Z,100811.66
2022-12-28T11:33:04.569Z,100797.31
2022-12-28T11:35:35.830Z,100791.97
2022-12-28T11:38:07.164Z,100808.56
2022-12-28T11:40:50.656Z,100786.63
2022-12-28T11:43:29.640Z,100795.13
2022-12-28T11:46:06.655Z,100786.56
2022-12-28T11:48:42.843Z,100785.63
2022-12-28T11:51:21.578Z,100767.88
2022-12-28T11:54:00.717Z,100774.38
2022-12-28T11:56:46.237Z,100779.38
2022-12-28T11:59:33.218Z,100770.09
2022-12-28T12:02:26.535Z,100774.66
2022-12-28T12:04:53.523Z,100770.72
2022-12-28T12:07:31.753Z,100757.94
2022-12-28T12:10:30.118Z,100768.84
2022-12-28T12:13:04.145Z,100761.31
2022-12-28T12:15:43.263Z,100760.59
2022-12-28T12:18:20.910Z,100767.94
2022-12-28T12:21:02.535Z,100745.38
2022-12-28T12:23:41.863Z,100757.22
2022-12-28T12:26:32.880Z,100746.28
2022-12-28T12:29:26.550Z,100736.75
2022-12-28T12:32:16.943Z,100738.53
2022-12-28T12:34:51.890Z,100720.03
2022-12-28T12:38:04.716Z,100721.47
2022-12-28T12:41:00.699Z,100728.09
2022-12-28T12:43:56.331Z,100712.72
2022-12-28T12:46:46.517Z,100726.13
2022-12-28T12:49:46.877Z,100725.25
2022-12-28T12:53:03.463Z,100720.13
2022-12-28T12:56:18.337Z,100732.72
2022-12-28T12:59:12.074Z,100714.53
2022-12-28T13:02:09.056Z,100741.91
2022-12-28T13:04:37.061Z,100724.19
2022-12-28T13:07:06.568Z,100712.34
2022-12-28T13:09:36.630Z,100720.25
2022-12-28T13:12:04.090Z,100699.81
2022-12-28T13:14:31.382Z,100707.44
2022-12-28T13:17:00.891Z,100719.84
2022-12-28T13:19:30.825Z,100707.28
2022-12-28T13:21:59.082Z,100706.50
2022-12-28T13:24:38.835Z,100704.63
2022-12-28T13:27:19.220Z,100683.75
2022-12-28T13:29:52.755Z,100704.41
2022-12-28T13:32:32.750Z,100709.28
2022-12-28T13:35:03.241Z,100704.16
2022-12-28T13:37:30.608Z,100694.19
2022-12-28T13:40:14.431Z,100684.69
2022-12-28T13:43:41.206Z,100691.38
2022-12-28T13:46:11.328Z,100709.75
2022-12-28T13:48:43.053Z,100720.09
2022-12-28T13:51:13.115Z,100700.13
2022-12-28T13:53:45.750Z,100707.44
2022-12-28T13:56:14.877Z,100698.88
2022-12-28T13:58:50.448Z,100700.94
2022-12-28T14:01:25.712Z,100711.91
2022-12-28T14:04:33.674Z,100709.31
2022-12-28T14:06:48.808Z,100696.81
2022-12-28T14:09:17.384Z,100703.66
2022-12-28T14:11:45.759Z,100696.47
2022-12-28T14:14:13.313Z,100688.81
2022-12-28T14:16:41.304Z,100710.41
2022-12-28T14:19:09.248Z,100696.03
2022-12-28T14:21:45.190Z,100704.78
2022-12-28T14:24:16.320Z,100709.25
2022-12-28T14:26:54.682Z,100719.22
2022-12-28T14:29:31.310Z,100715.16
2022-12-28T14:32:01.494Z,100705.63
2022-12-28T14:34:32.096Z,100714.63
2022-12-28T14:37:00.426Z,100709.66
2022-12-28T14:39:37.638Z,100707.47
2022-12-28T14:42:06.963Z,100704.94
2022-12-28T14:44:39.401Z,100706.22
2022-12-28T14:47:43.031Z,100724.63
2022-12-28T14:50:21.419Z,100696.56
2022-12-28T14:52:50.784Z,100710.00
2022-12-28T14:55:29.805Z,100705.94
2022-12-28T14:58:06.700Z,100706.16
2022-12-28T15:00:37.195Z,100706.63
2022-12-28T15:03:20.098Z,100710.84
2022-12-28T15:05:53.198Z,100725.03
2022-12-28T15:08:22.932Z,100717.22
2022-12-28T15:10:57.110Z,100718.50
2022-12-28T15:13:25.820Z,100714.56
2022-12-28T15:16:02.445Z,100711.88
2022-12-28T15:18:30.906Z,100707.09
2022-12-28T15:21:03.293Z,100705.72
2022-12-28T15:23:30.794Z,100712.13
2022-12-28T15:25:57.637Z,100706.53
2022-12-28T15:28:25.068Z,100702.81
2022-12-28T15:30:52.143Z,100711.88
2022-12-28T15:33:19.194Z,100711.06
2022-12-28T15:35:46.075Z,100712.69
2022-12-28T15:38:14.018Z,100709.09
2022-12-28T15:40:41.363Z,100712.94
2022-12-28T15:43:08.251Z,100701.06
2022-12-28T15:45:35.264Z,100705.84
2022-12-28T15:48:02.198Z,100699.78
2022-12-28T15:50:29.384Z,100703.50
2022-12-28T15:52:56.319Z,100707.81
2022-12-28T15:55:23.219Z,100706.19
2022-12-28T15:57:50.146Z,100704.31
2022-12-28T16:00:19.171Z,100713.75
2022-12-28T16:02:46.723Z,100704.19
2022-12-28T16:05:14.567Z,100698.50
2022-12-28T16:07:41.752Z,100699.91
2022-12-28T16:10:09.388Z,100700.56
2022-12-28T16:12:36.319Z,100694.41
2022-12-28T16:15:03.701Z,100690.91
2022-12-28T16:17:30.775Z,100696.03
2022-12-28T16:19:57.683Z,100697.19
2022-12-28T16:22:24.838Z,100691.25
2022-12-28T16:24:51.763Z,100681.13
2022-12-28T16:27:19.143Z,100702.63
2022-12-28T16:29:46.399Z,100681.94
2022-12-28T16:32:13.294Z,100699.28
2022-12-28T16:34:40.487Z,100697.19
2022-12-28T16:37:07.451Z,100681.59
2022-12-28T16:39:34.996Z,100688.69
2022-12-28T16:42:02.428Z,100691.84
2022-12-28T16:44:29.489Z,100688.81
2022-12-28T16:47:00.843Z,100683.34
2022-12-28T16:49:27.893Z,100682.38
2022-12-28T16:51:55.594Z,100675.31
2022-12-28T16:54:25.677Z,100680.03
2022-12-28T16:56:53.540Z,100678.66
2022-12-28T16:59:27.663Z,100701.00
2022-12-28T17:01:56.626Z,100687.25
2022-12-28T17:04:24.106Z,100673.66
2022-12-28T17:06:52.008Z,100677.16
2022-12-28T17:09:19.834Z,100675.63
2022-12-28T17:11:48.932Z,100688.19
2022-12-28T17:14:29.353Z,100682.84
2022-12-28T17:17:02.903Z,100685.63
2022-12-28T17:19:30.358Z,100680.66
2022-12-28T17:21:57.343Z,100683.19
2022-12-28T17:24:24.705Z,100687.16
2022-12-28T17:26:51.748Z,100682.53
2022-12-28T17:29:19.090Z,100691.97
2022-12-28T17:31:46.249Z,100685.84
2022-12-28T17:34:13.474Z,100682.94
2022-12-28T17:36:40.546Z,100678.53
2022-12-28T17:39:07.558Z,100677.13
2022-12-28T17:41:34.453Z,100677.59
2022-12-28T17:44:01.889Z,100668.44
2022-12-28T17:46:30.763Z,100661.34
2022-12-28T17:48:59.648Z,100668.56
2022-12-28T17:51:28.993Z,100659.25
2022-12-28T17:53:56.703Z,100668.66
2022-12-28T17:56:23.871Z,100649.59
2022-12-28T17:58:56.651Z,100659.03
2022-12-28T18:01:24.660Z,100657.16
2022-12-28T18:03:52.435Z,100644.94
2022-12-28T18:06:19.525Z,100639.84
2022-12-28T18:08:46.669Z,100642.84
2022-12-28T18:11:13.785Z,100647.84
2022-12-28T18:13:43.004Z,100646.66
2022-12-28T18:16:15.642Z,100639.47
2022-12-28T18:18:43.123Z,100638.75
2022-12-28T18:21:21.168Z,100647.94
2022-12-28T18:23:51.875Z,100641.53
2022-12-28T18:26:27.868Z,100629.44
2022-12-28T18:28:55.945Z,100628.97
2022-12-28T18:31:23.951Z,100638.75
2022-12-28T18:33:50.972Z,100614.34
2022-12-28T18:36:18.679Z,100624.56
2022-12-28T18:38:47.547Z,100621.66
2022-12-28T18:41:17.866Z,100626.53
2022-12-28T18:43:45.130Z,100620.72
2022-12-28T18:46:12.291Z,100613.72
2022-12-28T18:48:40.934Z,100612.25
2022-12-28T18:51:17.458Z,100605.03
2022-12-28T18:53:44.759Z,100619.31
2022-12-28T18:56:18.548Z,100612.91
2022-12-28T18:58:51.309Z,100601.53
2022-12-28T19:04:16.340Z,100609.09
2022-12-28T19:06:44.426Z,100617.59
2022-12-28T19:09:12.378Z,100613.88
2022-12-28T19:11:40.370Z,100608.16
2022-12-28T19:14:11.464Z,100616.97
2022-12-28T19:16:38.970Z,100611.88
2022-12-28T19:19:06.057Z,100601.56
2022-12-28T19:21:36.008Z,100607.84
2022-12-28T19:24:16.061Z,100603.22
2022-12-28T19:26:43.630Z,100615.09
2022-12-28T19:29:15.516Z,100616.84
2022-12-28T19:31:43.192Z,100611.63
2022-12-28T19:34:10.367Z,100603.50
2022-12-28T19:36:37.356Z,100609.75
2022-12-28T19:39:04.450Z,100600.13
2022-12-28T19:41:31.552Z,100615.22
2022-12-28T19:43:58.569Z,100603.28
2022-12-28T19:46:31.506Z,100608.16
2022-12-28T19:49:01.055Z,100615.25
2022-12-28T19:51:32.006Z,100598.88
2022-12-28T19:54:00.469Z,100588.31
2022-12-28T19:56:27.525Z,100570.31
2022-12-28T19:58:58.037Z,100559.19
2022-12-28T20:01:31.143Z,100564.19
2022-12-28T20:04:00.074Z,100544.31
2022-12-28T20:06:30.103Z,100541.66
2022-12-28T20:09:01.814Z,100524.25
2022-12-28T20:11:29.894Z,100516.81
2022-12-28T20:14:00.389Z,100545.94
2022-12-28T20:16:31.226Z,100552.09
2022-12-28T20:18:58.623Z,100554.78
2022-12-28T20:21:26.450Z,100543.50
2022-12-28T20:23:54.408Z,100540.97
2022-12-28T20:26:23.122Z,100550.59
2022-12-28T20:28:50.933Z,100544.69
2022-12-28T20:31:18.054Z,100542.47
2022-12-28T20:33:45.551Z,100552.44
2022-12-28T20:36:16.528Z,100560.69
2022-12-28T20:38:43.777Z,100557.44
2022-12-28T20:41:45.211Z,100544.69
2022-12-28T20:44:25.801Z,100538.19
2022-12-28T20:46:54.360Z,100536.22
2022-12-28T20:49:23.163Z,100529.13
2022-12-28T20:51:50.701Z,100529.94
2022-12-28T20:54:19.231Z,100519.50
2022-12-28T20:56:52.369Z,100516.81
2022-12-28T20:59:21.789Z,100517.88
2022-12-28T21:01:48.865Z,100507.75
2022-12-28T21:04:15.997Z,100503.94
2022-12-28T21:06:42.933Z,100501.03
2022-12-28T21:09:09.871Z,100500.81
2022-12-28T21:11:37.101Z,100492.22
2022-12-28T21:14:03.952Z,100484.78
2022-12-28T21:16:30.874Z,100471.66
2022-12-28T21:18:57.977Z,100462.97
2022-12-28T21:21:25.320Z,100445.56
2022-12-28T21:23:55.114Z,100448.66
2022-12-28T21:26:22.578Z,100446.47
2022-12-28T21:28:49.843Z,100439.63
2022-12-28T21:31:16.965Z,100432.66
2022-12-28T21:33:43.896Z,100427.31
2022-12-28T21:36:15.920Z,100427.41
2022-12-28T21:38:45.501Z,100431.81
2022-12-28T21:41:16.117Z,100428.66
2022-12-28T21:43:43.147Z,100418.22
2022-12-28T21:46:14.865Z,100422.75
2022-12-28T21:48:42.198Z,100422.28
2022-12-28T21:51:34.438Z,100422.84
2022-12-28T21:54:07.071Z,100412.97
2022-12-28T21:56:35.705Z,100393.47
2022-12-28T21:59:04.052Z,100393.56
2022-12-28T22:01:49.343Z,100374.31
2022-12-28T22:04:38.891Z,100379.16
2022-12-28T22:07:08.745Z,100360.00
2022-12-28T22:09:55.179Z,100362.34
2022-12-28T22:12:36.297Z,100356.84
2022-12-28T22:15:35.259Z,100352.06
2022-12-28T22:18:44.500Z,100345.44
2022-12-28T22:21:06.359Z,100352.16
2022-12-28T22:23:35.051Z,100342.03
2022-12-28T22:26:02.986Z,100358.41
2022-12-28T22:28:30.173Z,100332.25
2022-12-28T22:30:57.111Z,100349.50
2022-12-28T22:33:24.058Z,100345.09
2022-12-28T22:35:50.874Z,100339.28
2022-12-28T22:38:17.939Z,100328.91
2022-12-28T22:40:44.911Z,100318.22
2022-12-28T22:43:11.796Z,100322.03
2022-12-28T22:45:38.781Z,100322.91
2022-12-28T22:48:06.329Z,100314.16
2022-12-28T22:50:38.178Z,100315.53
2022-12-28T22:53:08.443Z,100315.06
2022-12-28T22:55:35.569Z,100307.59
2022-12-28T22:58:02.583Z,100310.84
2022-12-28T23:00:29.645Z,100308.72
2022-12-28T23:02:56.903Z,100311.41
2022-12-28T23:05:23.813Z,100299.16
2022-12-28T23:07:51.107Z,100311.16
2022-12-28T23:10:18.010Z,100307.94
2022-12-28T23:12:45.288Z,100317.81
2022-12-28T23:15:21.607Z,100294.22
2022-12-28T23:17:49.246Z,100307.13
2022-12-28T23:20:35.795Z,100297.72
2022-12-28T23:23:21.774Z,100287.50
2022-12-28T23:26:07.159Z,100296.59
2022-12-28T23:28:36.041Z,100283.47
2022-12-28T23:31:04.157Z,100285.16
2022-12-28T23:33:31.471Z,100267.75
2022-12-28T23:36:04.001Z,100267.56
2022-12-28T23:38:32.915Z,100276.34
2022-12-28T23:41:23.693Z,100262.72
2022-12-28T23:43:50.701Z,100268.56
2022-12-28T23:46:17.873Z,100253.81
2022-12-28T23:48:44.825Z,100262.81
2022-12-28T23:51:12.113Z,100251.56
2022-12-28T23:53:38.908Z,100244.28
2022-12-28T23:56:06.637Z,100241.03
2022-12-28T23:58:33.883Z,100234.16
